sensor_id;sensor_type;location;lat;lon;timestamp;P1;durP1;ratioP1;P2;durP2;ratioP2
53903;SDS011;39812;52.430;16.936;2023-01-29T00:02:05;17.35;;;6.53;;
53903;SDS011;39812;52.430;16.936;2023-01-29T00:04:31;11.75;;;4.25;;
53903;SDS011;39812;52.430;16.936;2023-01-29T00:06:57;16.67;;;5.78;;
53903;SDS011;39812;52.430;16.936;2023-01-29T00:09:23;12.65;;;5.53;;
53903;SDS011;39812;52.430;16.936;2023-01-29T00:11:49;10.90;;;5.60;;
53903;SDS011;39812;52.430;16.936;2023-01-29T00:14:14;12.50;;;5.80;;
53903;SDS011;39812;52.430;16.936;2023-01-29T00:16:40;9.32;;;4.45;;
53903;SDS011;39812;52.430;16.936;2023-01-29T00:19:06;12.50;;;5.03;;
53903;SDS011;39812;52.430;16.936;2023-01-29T00:21:31;12.38;;;5.18;;
53903;SDS011;39812;52.430;16.936;2023-01-29T00:23:58;14.32;;;5.78;;
53903;SDS011;39812;52.430;16.936;2023-01-29T00:26:24;10.55;;;4.63;;
53903;SDS011;39812;52.430;16.936;2023-01-29T00:28:50;10.10;;;4.60;;
53903;SDS011;39812;52.430;16.936;2023-01-29T00:31:18;9.18;;;4.70;;
53903;SDS011;39812;52.430;16.936;2023-01-29T00:33:46;14.95;;;4.50;;
53903;SDS011;39812;52.430;16.936;2023-01-29T00:36:12;10.27;;;5.32;;
53903;SDS011;39812;52.430;16.936;2023-01-29T00:38:39;8.98;;;3.80;;
53903;SDS011;39812;52.430;16.936;2023-01-29T00:41:06;11.30;;;4.88;;
53903;SDS011;39812;52.430;16.936;2023-01-29T00:43:54;8.38;;;4.32;;
53903;SDS011;39812;52.430;16.936;2023-01-29T00:46:39;9.60;;;4.25;;
53903;SDS011;39812;52.430;16.936;2023-01-29T00:49:05;5.65;;;3.63;;
53903;SDS011;39812;52.430;16.936;2023-01-29T00:51:32;6.53;;;4.30;;
53903;SDS011;39812;52.430;16.936;2023-01-29T00:53:58;8.10;;;4.03;;
53903;SDS011;39812;52.430;16.936;2023-01-29T00:56:24;11.57;;;4.68;;
53903;SDS011;39812;52.430;16.936;2023-01-29T00:58:50;8.07;;;3.08;;
53903;SDS011;39812;52.430;16.936;2023-01-29T01:01:16;10.65;;;4.15;;
53903;SDS011;39812;52.430;16.936;2023-01-29T01:04:03;5.72;;;2.97;;
53903;SDS011;39812;52.430;16.936;2023-01-29T01:06:29;8.80;;;4.18;;
53903;SDS011;39812;52.430;16.936;2023-01-29T01:08:54;10.05;;;5.07;;
53903;SDS011;39812;52.430;16.936;2023-01-29T01:11:39;9.50;;;4.88;;
53903;SDS011;39812;52.430;16.936;2023-01-29T01:14:05;7.03;;;4.45;;
53903;SDS011;39812;52.430;16.936;2023-01-29T01:16:31;10.75;;;4.65;;
53903;SDS011;39812;52.430;16.936;2023-01-29T01:18:56;7.20;;;4.93;;
53903;SDS011;39812;52.430;16.936;2023-01-29T01:21:22;8.02;;;4.22;;
53903;SDS011;39812;52.430;16.936;2023-01-29T01:23:47;8.00;;;3.42;;
53903;SDS011;39812;52.430;16.936;2023-01-29T01:26:15;13.05;;;4.80;;
53903;SDS011;39812;52.430;16.936;2023-01-29T01:28:42;8.50;;;3.58;;
53903;SDS011;39812;52.430;16.936;2023-01-29T01:31:12;10.85;;;4.03;;
53903;SDS011;39812;52.430;16.936;2023-01-29T01:33:38;11.38;;;4.93;;
53903;SDS011;39812;52.430;16.936;2023-01-29T01:36:05;8.45;;;4.47;;
53903;SDS011;39812;52.430;16.936;2023-01-29T01:38:37;10.60;;;5.80;;
53903;SDS011;39812;52.430;16.936;2023-01-29T01:41:12;6.93;;;3.65;;
53903;SDS011;39812;52.430;16.936;2023-01-29T01:46:12;8.95;;;4.40;;
53903;SDS011;39812;52.430;16.936;2023-01-29T01:48:39;12.35;;;4.60;;
53903;SDS011;39812;52.430;16.936;2023-01-29T01:51:05;6.95;;;3.13;;
53903;SDS011;39812;52.430;16.936;2023-01-29T01:53:36;16.00;;;4.65;;
53903;SDS011;39812;52.430;16.936;2023-01-29T01:56:08;13.02;;;5.13;;
53903;SDS011;39812;52.430;16.936;2023-01-29T01:58:54;11.18;;;6.85;;
53903;SDS011;39812;52.430;16.936;2023-01-29T02:01:22;6.90;;;3.17;;
53903;SDS011;39812;52.430;16.936;2023-01-29T02:04:02;9.48;;;4.30;;
53903;SDS011;39812;52.430;16.936;2023-01-29T02:06:49;7.30;;;4.82;;
53903;SDS011;39812;52.430;16.936;2023-01-29T02:10:21;11.13;;;5.07;;
53903;SDS011;39812;52.430;16.936;2023-01-29T02:12:25;13.57;;;5.38;;
53903;SDS011;39812;52.430;16.936;2023-01-29T02:14:55;7.95;;;4.05;;
53903;SDS011;39812;52.430;16.936;2023-01-29T02:17:21;9.02;;;4.07;;
53903;SDS011;39812;52.430;16.936;2023-01-29T02:27:40;7.20;;;4.75;;
53903;SDS011;39812;52.430;16.936;2023-01-29T02:33:08;11.85;;;5.32;;
53903;SDS011;39812;52.430;16.936;2023-01-29T02:35:53;11.85;;;5.63;;
53903;SDS011;39812;52.430;16.936;2023-01-29T02:38:35;8.88;;;4.40;;
53903;SDS011;39812;52.430;16.936;2023-01-29T02:41:27;8.50;;;5.32;;
53903;SDS011;39812;52.430;16.936;2023-01-29T02:46:44;7.30;;;3.72;;
53903;SDS011;39812;52.430;16.936;2023-01-29T02:49:35;12.73;;;5.03;;
53903;SDS011;39812;52.430;16.936;2023-01-29T02:54:40;8.07;;;3.45;;
53903;SDS011;39812;52.430;16.936;2023-01-29T02:57:20;6.53;;;4.45;;
53903;SDS011;39812;52.430;16.936;2023-01-29T02:59:51;8.55;;;4.45;;
53903;SDS011;39812;52.430;16.936;2023-01-29T03:05:13;6.80;;;3.75;;
53903;SDS011;39812;52.430;16.936;2023-01-29T03:07:42;5.75;;;3.70;;
53903;SDS011;39812;52.430;16.936;2023-01-29T03:10:20;7.88;;;4.40;;
53903;SDS011;39812;52.430;16.936;2023-01-29T03:12:50;6.93;;;3.67;;
53903;SDS011;39812;52.430;16.936;2023-01-29T03:15:32;11.07;;;5.38;;
53903;SDS011;39812;52.430;16.936;2023-01-29T03:18:11;8.75;;;3.55;;
53903;SDS011;39812;52.430;16.936;2023-01-29T03:20:52;8.15;;;4.20;;
53903;SDS011;39812;52.430;16.936;2023-01-29T03:23:26;6.10;;;4.18;;
53903;SDS011;39812;52.430;16.936;2023-01-29T03:26:14;9.75;;;5.22;;
53903;SDS011;39812;52.430;16.936;2023-01-29T03:29:01;10.23;;;4.10;;
53903;SDS011;39812;52.430;16.936;2023-01-29T03:31:47;6.30;;;3.97;;
53903;SDS011;39812;52.430;16.936;2023-01-29T03:34:29;7.35;;;3.45;;
53903;SDS011;39812;52.430;16.936;2023-01-29T03:37:17;5.70;;;3.45;;
53903;SDS011;39812;52.430;16.936;2023-01-29T03:42:35;7.60;;;3.92;;
53903;SDS011;39812;52.430;16.936;2023-01-29T03:45:13;9.43;;;4.22;;
53903;SDS011;39812;52.430;16.936;2023-01-29T03:47:42;5.88;;;3.97;;
53903;SDS011;39812;52.430;16.936;2023-01-29T03:52:49;6.47;;;4.30;;
53903;SDS011;39812;52.430;16.936;2023-01-29T04:00:29;4.10;;;2.72;;
53903;SDS011;39812;52.430;16.936;2023-01-29T04:05:49;8.55;;;4.25;;
53903;SDS011;39812;52.430;16.936;2023-01-29T04:08:17;7.93;;;4.05;;
53903;SDS011;39812;52.430;16.936;2023-01-29T04:10:48;9.25;;;4.53;;
53903;SDS011;39812;52.430;16.936;2023-01-29T04:13:18;7.57;;;3.60;;
53903;SDS011;39812;52.430;16.936;2023-01-29T04:15:49;7.47;;;4.45;;
53903;SDS011;39812;52.430;16.936;2023-01-29T04:18:18;9.50;;;3.75;;
53903;SDS011;39812;52.430;16.936;2023-01-29T04:20:43;7.15;;;4.55;;
53903;SDS011;39812;52.430;16.936;2023-01-29T04:23:20;11.43;;;6.05;;
53903;SDS011;39812;52.430;16.936;2023-01-29T04:25:51;7.15;;;3.58;;
53903;SDS011;39812;52.430;16.936;2023-01-29T04:28:40;10.63;;;5.03;;
53903;SDS011;39812;52.430;16.936;2023-01-29T04:31:24;7.25;;;4.03;;
53903;SDS011;39812;52.430;16.936;2023-01-29T04:36:45;9.55;;;3.88;;
53903;SDS011;39812;52.430;16.936;2023-01-29T04:39:24;8.05;;;5.00;;
53903;SDS011;39812;52.430;16.936;2023-01-29T04:44:43;9.15;;;5.13;;
53903;SDS011;39812;52.430;16.936;2023-01-29T04:47:33;11.77;;;5.82;;
53903;SDS011;39812;52.430;16.936;2023-01-29T04:53:06;12.93;;;6.10;;
53903;SDS011;39812;52.430;16.936;2023-01-29T04:55:44;8.80;;;5.35;;
53903;SDS011;39812;52.430;16.936;2023-01-29T05:01:03;9.68;;;5.68;;
53903;SDS011;39812;52.430;16.936;2023-01-29T05:03:32;11.98;;;5.10;;
53903;SDS011;39812;52.430;16.936;2023-01-29T05:06:00;8.70;;;5.60;;
53903;SDS011;39812;52.430;16.936;2023-01-29T05:08:27;11.85;;;4.93;;
53903;SDS011;39812;52.430;16.936;2023-01-29T05:10:56;11.15;;;5.82;;
53903;SDS011;39812;52.430;16.936;2023-01-29T05:13:23;15.85;;;5.57;;
53903;SDS011;39812;52.430;16.936;2023-01-29T05:15:58;9.35;;;5.53;;
53903;SDS011;39812;52.430;16.936;2023-01-29T05:18:28;8.82;;;4.70;;
53903;SDS011;39812;52.430;16.936;2023-01-29T05:20:55;12.55;;;5.85;;
53903;SDS011;39812;52.430;16.936;2023-01-29T05:23:23;11.77;;;6.50;;
53903;SDS011;39812;52.430;16.936;2023-01-29T05:25:48;12.85;;;6.00;;
53903;SDS011;39812;52.430;16.936;2023-01-29T05:28:16;10.88;;;5.88;;
53903;SDS011;39812;52.430;16.936;2023-01-29T05:30:42;9.68;;;5.05;;
53903;SDS011;39812;52.430;16.936;2023-01-29T05:35:41;9.35;;;5.20;;
53903;SDS011;39812;52.430;16.936;2023-01-29T05:38:07;10.43;;;4.55;;
53903;SDS011;39812;52.430;16.936;2023-01-29T05:40:33;17.90;;;6.22;;
53903;SDS011;39812;52.430;16.936;2023-01-29T05:42:58;11.43;;;5.53;;
53903;SDS011;39812;52.430;16.936;2023-01-29T05:45:24;11.52;;;6.35;;
53903;SDS011;39812;52.430;16.936;2023-01-29T05:47:50;10.60;;;4.93;;
53903;SDS011;39812;52.430;16.936;2023-01-29T05:50:23;7.45;;;5.03;;
53903;SDS011;39812;52.430;16.936;2023-01-29T05:52:57;11.50;;;5.38;;
53903;SDS011;39812;52.430;16.936;2023-01-29T05:55:24;8.50;;;4.53;;
53903;SDS011;39812;52.430;16.936;2023-01-29T05:57:50;10.98;;;4.85;;
53903;SDS011;39812;52.430;16.936;2023-01-29T06:00:15;15.55;;;5.10;;
53903;SDS011;39812;52.430;16.936;2023-01-29T06:02:41;8.65;;;4.25;;
53903;SDS011;39812;52.430;16.936;2023-01-29T06:05:07;8.80;;;5.10;;
53903;SDS011;39812;52.430;16.936;2023-01-29T06:07:33;9.82;;;5.18;;
53903;SDS011;39812;52.430;16.936;2023-01-29T06:09:59;10.20;;;6.45;;
53903;SDS011;39812;52.430;16.936;2023-01-29T06:12:26;12.45;;;6.60;;
53903;SDS011;39812;52.430;16.936;2023-01-29T06:14:51;12.13;;;5.05;;
53903;SDS011;39812;52.430;16.936;2023-01-29T06:17:17;14.00;;;7.35;;
53903;SDS011;39812;52.430;16.936;2023-01-29T06:19:43;15.13;;;7.05;;
53903;SDS011;39812;52.430;16.936;2023-01-29T06:22:08;20.50;;;6.72;;
53903;SDS011;39812;52.430;16.936;2023-01-29T06:24:34;17.23;;;7.85;;
53903;SDS011;39812;52.430;16.936;2023-01-29T06:27:00;15.27;;;8.10;;
53903;SDS011;39812;52.430;16.936;2023-01-29T06:29:26;11.95;;;7.35;;
53903;SDS011;39812;52.430;16.936;2023-01-29T06:31:51;18.17;;;7.80;;
53903;SDS011;39812;52.430;16.936;2023-01-29T06:34:17;17.98;;;8.55;;
53903;SDS011;39812;52.430;16.936;2023-01-29T06:36:43;21.63;;;7.63;;
53903;SDS011;39812;52.430;16.936;2023-01-29T06:39:08;14.30;;;7.15;;
53903;SDS011;39812;52.430;16.936;2023-01-29T06:41:34;15.48;;;8.15;;
53903;SDS011;39812;52.430;16.936;2023-01-29T06:44:00;14.48;;;7.13;;
53903;SDS011;39812;52.430;16.936;2023-01-29T06:46:26;17.48;;;7.68;;
53903;SDS011;39812;52.430;16.936;2023-01-29T06:48:51;24.02;;;10.02;;
53903;SDS011;39812;52.430;16.936;2023-01-29T06:51:17;17.70;;;7.72;;
53903;SDS011;39812;52.430;16.936;2023-01-29T06:53:43;16.25;;;7.78;;
53903;SDS011;39812;52.430;16.936;2023-01-29T06:56:08;15.35;;;7.38;;
53903;SDS011;39812;52.430;16.936;2023-01-29T06:58:37;16.48;;;7.57;;
53903;SDS011;39812;52.430;16.936;2023-01-29T07:01:07;16.30;;;7.57;;
53903;SDS011;39812;52.430;16.936;2023-01-29T07:03:34;17.98;;;8.63;;
53903;SDS011;39812;52.430;16.936;2023-01-29T07:06:01;16.67;;;8.13;;
53903;SDS011;39812;52.430;16.936;2023-01-29T07:08:26;21.63;;;10.70;;
53903;SDS011;39812;52.430;16.936;2023-01-29T07:10:52;17.40;;;8.25;;
53903;SDS011;39812;52.430;16.936;2023-01-29T07:13:23;14.95;;;8.60;;
53903;SDS011;39812;52.430;16.936;2023-01-29T07:15:49;23.10;;;10.60;;
53903;SDS011;39812;52.430;16.936;2023-01-29T07:18:14;16.73;;;8.05;;
53903;SDS011;39812;52.430;16.936;2023-01-29T07:20:40;14.23;;;8.82;;
53903;SDS011;39812;52.430;16.936;2023-01-29T07:23:11;21.30;;;9.55;;
53903;SDS011;39812;52.430;16.936;2023-01-29T07:25:37;21.65;;;11.52;;
53903;SDS011;39812;52.430;16.936;2023-01-29T07:28:04;24.05;;;10.02;;
53903;SDS011;39812;52.430;16.936;2023-01-29T07:30:30;24.30;;;11.05;;
53903;SDS011;39812;52.430;16.936;2023-01-29T07:33:00;22.77;;;11.30;;
53903;SDS011;39812;52.430;16.936;2023-01-29T07:35:35;17.17;;;8.95;;
53903;SDS011;39812;52.430;16.936;2023-01-29T07:38:05;14.15;;;7.97;;
53903;SDS011;39812;52.430;16.936;2023-01-29T07:40:32;23.75;;;10.18;;
53903;SDS011;39812;52.430;16.936;2023-01-29T07:42:58;20.35;;;9.45;;
53903;SDS011;39812;52.430;16.936;2023-01-29T07:45:25;37.80;;;11.50;;
53903;SDS011;39812;52.430;16.936;2023-01-29T07:47:51;21.98;;;11.00;;
53903;SDS011;39812;52.430;16.936;2023-01-29T07:50:18;21.23;;;9.20;;
53903;SDS011;39812;52.430;16.936;2023-01-29T07:52:44;26.02;;;12.00;;
53903;SDS011;39812;52.430;16.936;2023-01-29T07:55:09;20.58;;;10.52;;
53903;SDS011;39812;52.430;16.936;2023-01-29T07:57:35;23.88;;;11.35;;
53903;SDS011;39812;52.430;16.936;2023-01-29T08:00:01;23.15;;;10.38;;
53903;SDS011;39812;52.430;16.936;2023-01-29T08:02:26;30.25;;;11.63;;
53903;SDS011;39812;52.430;16.936;2023-01-29T08:04:52;26.38;;;11.93;;
53903;SDS011;39812;52.430;16.936;2023-01-29T08:07:18;24.15;;;12.43;;
53903;SDS011;39812;52.430;16.936;2023-01-29T08:09:43;22.33;;;9.50;;
53903;SDS011;39812;52.430;16.936;2023-01-29T08:12:09;22.95;;;10.38;;
53903;SDS011;39812;52.430;16.936;2023-01-29T08:14:35;21.25;;;10.20;;
53903;SDS011;39812;52.430;16.936;2023-01-29T08:17:00;24.25;;;11.70;;
53903;SDS011;39812;52.430;16.936;2023-01-29T08:19:26;22.83;;;11.30;;
53903;SDS011;39812;52.430;16.936;2023-01-29T08:21:52;21.38;;;10.48;;
53903;SDS011;39812;52.430;16.936;2023-01-29T08:24:17;23.27;;;12.38;;
53903;SDS011;39812;52.430;16.936;2023-01-29T08:26:43;19.13;;;9.75;;
53903;SDS011;39812;52.430;16.936;2023-01-29T08:29:09;22.52;;;10.35;;
53903;SDS011;39812;52.430;16.936;2023-01-29T08:31:35;23.70;;;10.23;;
53903;SDS011;39812;52.430;16.936;2023-01-29T08:34:01;18.52;;;9.85;;
53903;SDS011;39812;52.430;16.936;2023-01-29T08:36:27;23.20;;;10.30;;
53903;SDS011;39812;52.430;16.936;2023-01-29T08:38:53;22.58;;;9.80;;
53903;SDS011;39812;52.430;16.936;2023-01-29T08:41:18;18.73;;;9.75;;
53903;SDS011;39812;52.430;16.936;2023-01-29T08:43:44;21.48;;;10.40;;
53903;SDS011;39812;52.430;16.936;2023-01-29T08:46:10;17.73;;;9.15;;
53903;SDS011;39812;52.430;16.936;2023-01-29T08:48:36;21.40;;;8.73;;
53903;SDS011;39812;52.430;16.936;2023-01-29T08:51:02;23.27;;;9.65;;
53903;SDS011;39812;52.430;16.936;2023-01-29T08:53:28;17.38;;;8.68;;
53903;SDS011;39812;52.430;16.936;2023-01-29T08:55:54;15.00;;;7.40;;
53903;SDS011;39812;52.430;16.936;2023-01-29T08:58:20;19.15;;;8.60;;
53903;SDS011;39812;52.430;16.936;2023-01-29T09:00:46;18.38;;;8.57;;
53903;SDS011;39812;52.430;16.936;2023-01-29T09:03:11;19.50;;;10.07;;
53903;SDS011;39812;52.430;16.936;2023-01-29T09:05:38;19.63;;;10.45;;
53903;SDS011;39812;52.430;16.936;2023-01-29T09:08:05;19.58;;;10.50;;
53903;SDS011;39812;52.430;16.936;2023-01-29T09:10:32;17.30;;;8.18;;
53903;SDS011;39812;52.430;16.936;2023-01-29T09:12:58;17.95;;;10.32;;
53903;SDS011;39812;52.430;16.936;2023-01-29T09:15:24;17.00;;;8.95;;
53903;SDS011;39812;52.430;16.936;2023-01-29T09:17:50;23.60;;;10.82;;
53903;SDS011;39812;52.430;16.936;2023-01-29T09:20:16;19.17;;;9.05;;
53903;SDS011;39812;52.430;16.936;2023-01-29T09:22:43;26.05;;;10.07;;
53903;SDS011;39812;52.430;16.936;2023-01-29T09:25:09;18.67;;;9.07;;
53903;SDS011;39812;52.430;16.936;2023-01-29T09:27:35;23.48;;;9.55;;
53903;SDS011;39812;52.430;16.936;2023-01-29T09:30:02;17.80;;;10.40;;
53903;SDS011;39812;52.430;16.936;2023-01-29T09:32:28;17.52;;;8.57;;
53903;SDS011;39812;52.430;16.936;2023-01-29T09:34:56;18.88;;;9.52;;
53903;SDS011;39812;52.430;16.936;2023-01-29T09:37:22;19.95;;;9.70;;
53903;SDS011;39812;52.430;16.936;2023-01-29T09:39:48;28.85;;;9.88;;
53903;SDS011;39812;52.430;16.936;2023-01-29T09:42:17;20.50;;;10.27;;
53903;SDS011;39812;52.430;16.936;2023-01-29T09:47:28;18.73;;;8.88;;
53903;SDS011;39812;52.430;16.936;2023-01-29T09:49:58;18.63;;;10.95;;
53903;SDS011;39812;52.430;16.936;2023-01-29T09:52:35;19.55;;;10.25;;
53903;SDS011;39812;52.430;16.936;2023-01-29T09:55:22;25.17;;;11.95;;
53903;SDS011;39812;52.430;16.936;2023-01-29T09:57:52;19.25;;;10.70;;
53903;SDS011;39812;52.430;16.936;2023-01-29T10:05:51;21.70;;;10.35;;
53903;SDS011;39812;52.430;16.936;2023-01-29T10:24:04;19.67;;;11.85;;
53903;SDS011;39812;52.430;16.936;2023-01-29T10:26:38;22.45;;;11.30;;
53903;SDS011;39812;52.430;16.936;2023-01-29T10:29:05;21.58;;;9.98;;
53903;SDS011;39812;52.430;16.936;2023-01-29T10:31:33;20.65;;;10.98;;
53903;SDS011;39812;52.430;16.936;2023-01-29T10:34:06;18.27;;;9.57;;
53903;SDS011;39812;52.430;16.936;2023-01-29T10:36:46;19.80;;;10.30;;
53903;SDS011;39812;52.430;16.936;2023-01-29T11:00:42;26.17;;;12.55;;
53903;SDS011;39812;52.430;16.936;2023-01-29T11:03:15;19.27;;;9.93;;
53903;SDS011;39812;52.430;16.936;2023-01-29T11:14:28;22.73;;;11.07;;
53903;SDS011;39812;52.430;16.936;2023-01-29T11:17:13;25.55;;;11.40;;
53903;SDS011;39812;52.430;16.936;2023-01-29T11:19:41;18.42;;;10.27;;
53903;SDS011;39812;52.430;16.936;2023-01-29T11:22:18;21.52;;;11.35;;
53903;SDS011;39812;52.430;16.936;2023-01-29T11:24:46;24.85;;;11.80;;
53903;SDS011;39812;52.430;16.936;2023-01-29T11:30:37;24.90;;;11.25;;
53903;SDS011;39812;52.430;16.936;2023-01-29T11:33:18;23.08;;;10.60;;
53903;SDS011;39812;52.430;16.936;2023-01-29T11:35:47;16.55;;;8.43;;
53903;SDS011;39812;52.430;16.936;2023-01-29T11:38:23;17.58;;;10.38;;
53903;SDS011;39812;52.430;16.936;2023-01-29T11:40:50;15.90;;;10.20;;
53903;SDS011;39812;52.430;16.936;2023-01-29T11:45:52;19.02;;;11.18;;
53903;SDS011;39812;52.430;16.936;2023-01-29T11:48:29;21.38;;;11.60;;
53903;SDS011;39812;52.430;16.936;2023-01-29T11:51:04;23.67;;;10.93;;
53903;SDS011;39812;52.430;16.936;2023-01-29T11:53:36;21.17;;;12.10;;
53903;SDS011;39812;52.430;16.936;2023-01-29T11:56:06;24.63;;;11.55;;
53903;SDS011;39812;52.430;16.936;2023-01-29T11:58:43;25.42;;;12.02;;
53903;SDS011;39812;52.430;16.936;2023-01-29T12:01:11;21.65;;;11.57;;
53903;SDS011;39812;52.430;16.936;2023-01-29T12:03:40;26.38;;;12.32;;
53903;SDS011;39812;52.430;16.936;2023-01-29T12:06:20;21.25;;;10.60;;
53903;SDS011;39812;52.430;16.936;2023-01-29T12:08:56;30.88;;;13.50;;
53903;SDS011;39812;52.430;16.936;2023-01-29T12:13:59;26.00;;;10.93;;
53903;SDS011;39812;52.430;16.936;2023-01-29T12:19:18;31.13;;;12.57;;
53903;SDS011;39812;52.430;16.936;2023-01-29T12:24:40;22.73;;;11.80;;
53903;SDS011;39812;52.430;16.936;2023-01-29T12:27:32;28.17;;;12.25;;
53903;SDS011;39812;52.430;16.936;2023-01-29T12:33:04;25.33;;;13.70;;
53903;SDS011;39812;52.430;16.936;2023-01-29T12:38:21;27.80;;;14.80;;
53903;SDS011;39812;52.430;16.936;2023-01-29T12:43:37;28.63;;;14.68;;
53903;SDS011;39812;52.430;16.936;2023-01-29T12:46:12;24.08;;;12.02;;
53903;SDS011;39812;52.430;16.936;2023-01-29T12:49:03;21.50;;;10.90;;
53903;SDS011;39812;52.430;16.936;2023-01-29T12:51:46;30.60;;;12.38;;
53903;SDS011;39812;52.430;16.936;2023-01-29T12:54:19;28.27;;;13.25;;
53903;SDS011;39812;52.430;16.936;2023-01-29T12:56:52;28.17;;;13.30;;
53903;SDS011;39812;52.430;16.936;2023-01-29T12:59:43;26.42;;;13.05;;
53903;SDS011;39812;52.430;16.936;2023-01-29T13:05:06;28.45;;;10.88;;
53903;SDS011;39812;52.430;16.936;2023-01-29T13:07:46;29.92;;;13.27;;
53903;SDS011;39812;52.430;16.936;2023-01-29T13:10:28;31.80;;;15.32;;
53903;SDS011;39812;52.430;16.936;2023-01-29T13:13:09;28.38;;;13.13;;
53903;SDS011;39812;52.430;16.936;2023-01-29T13:15:37;27.15;;;11.95;;
53903;SDS011;39812;52.430;16.936;2023-01-29T13:20:41;25.30;;;13.05;;
53903;SDS011;39812;52.430;16.936;2023-01-29T13:23:18;28.83;;;13.02;;
53903;SDS011;39812;52.430;16.936;2023-01-29T13:25:50;28.25;;;13.25;;
53903;SDS011;39812;52.430;16.936;2023-01-29T13:28:17;28.42;;;12.98;;
53903;SDS011;39812;52.430;16.936;2023-01-29T13:30:46;27.23;;;12.40;;
53903;SDS011;39812;52.430;16.936;2023-01-29T13:33:54;25.88;;;11.43;;
53903;SDS011;39812;52.430;16.936;2023-01-29T13:36:25;23.17;;;12.00;;
53903;SDS011;39812;52.430;16.936;2023-01-29T13:41:33;26.90;;;12.60;;
53903;SDS011;39812;52.430;16.936;2023-01-29T13:44:06;25.88;;;13.10;;
53903;SDS011;39812;52.430;16.936;2023-01-29T13:46:49;31.02;;;13.35;;
53903;SDS011;39812;52.430;16.936;2023-01-29T13:49:52;27.92;;;12.38;;
53903;SDS011;39812;52.430;16.936;2023-01-29T13:55:04;31.98;;;14.15;;
53903;SDS011;39812;52.430;16.936;2023-01-29T14:00:46;26.85;;;12.40;;
53903;SDS011;39812;52.430;16.936;2023-01-29T14:07:59;24.77;;;11.10;;
53903;SDS011;39812;52.430;16.936;2023-01-29T14:10:27;22.38;;;12.32;;
53903;SDS011;39812;52.430;16.936;2023-01-29T14:13:24;26.65;;;13.43;;
53903;SDS011;39812;52.430;16.936;2023-01-29T14:15:41;25.95;;;12.90;;
53903;SDS011;39812;52.430;16.936;2023-01-29T14:18:28;26.52;;;12.65;;
53903;SDS011;39812;52.430;16.936;2023-01-29T14:21:05;27.20;;;11.77;;
53903;SDS011;39812;52.430;16.936;2023-01-29T14:34:22;26.13;;;11.63;;
53903;SDS011;39812;52.430;16.936;2023-01-29T14:36:51;28.05;;;12.82;;
53903;SDS011;39812;52.430;16.936;2023-01-29T14:41:53;34.00;;;15.55;;
53903;SDS011;39812;52.430;16.936;2023-01-29T14:47:19;31.83;;;15.77;;
53903;SDS011;39812;52.430;16.936;2023-01-29T15:01:25;33.42;;;14.82;;
53903;SDS011;39812;52.430;16.936;2023-01-29T15:04:04;27.10;;;12.43;;
53903;SDS011;39812;52.430;16.936;2023-01-29T15:06:32;26.67;;;12.73;;
53903;SDS011;39812;52.430;16.936;2023-01-29T15:14:34;33.65;;;15.68;;
53903;SDS011;39812;52.430;16.936;2023-01-29T15:17:08;35.75;;;15.07;;
53903;SDS011;39812;52.430;16.936;2023-01-29T15:19:56;25.08;;;13.63;;
53903;SDS011;39812;52.430;16.936;2023-01-29T15:22:22;32.22;;;15.75;;
53903;SDS011;39812;52.430;16.936;2023-01-29T15:25:04;35.47;;;14.48;;
53903;SDS011;39812;52.430;16.936;2023-01-29T15:27:42;37.47;;;15.35;;
53903;SDS011;39812;52.430;16.936;2023-01-29T15:30:20;29.60;;;14.57;;
53903;SDS011;39812;52.430;16.936;2023-01-29T15:32:50;29.45;;;13.18;;
53903;SDS011;39812;52.430;16.936;2023-01-29T15:38:02;26.73;;;13.85;;
53903;SDS011;39812;52.430;16.936;2023-01-29T15:40:31;25.33;;;13.23;;
53903;SDS011;39812;52.430;16.936;2023-01-29T15:42:57;35.35;;;17.02;;
53903;SDS011;39812;52.430;16.936;2023-01-29T15:45:24;31.50;;;14.65;;
53903;SDS011;39812;52.430;16.936;2023-01-29T15:48:07;31.60;;;14.35;;
53903;SDS011;39812;52.430;16.936;2023-01-29T15:50:39;36.10;;;14.18;;
53903;SDS011;39812;52.430;16.936;2023-01-29T15:53:07;37.33;;;15.02;;
53903;SDS011;39812;52.430;16.936;2023-01-29T15:55:38;33.95;;;15.40;;
53903;SDS011;39812;52.430;16.936;2023-01-29T15:58:05;37.47;;;16.30;;
53903;SDS011;39812;52.430;16.936;2023-01-29T16:00:36;29.52;;;15.13;;
53903;SDS011;39812;52.430;16.936;2023-01-29T16:03:11;28.05;;;12.90;;
53903;SDS011;39812;52.430;16.936;2023-01-29T16:05:39;26.42;;;14.57;;
53903;SDS011;39812;52.430;16.936;2023-01-29T16:08:05;29.45;;;14.18;;
53903;SDS011;39812;52.430;16.936;2023-01-29T16:10:36;26.27;;;12.48;;
53903;SDS011;39812;52.430;16.936;2023-01-29T16:13:26;27.75;;;13.30;;
53903;SDS011;39812;52.430;16.936;2023-01-29T16:18:22;33.42;;;14.70;;
53903;SDS011;39812;52.430;16.936;2023-01-29T16:20:50;21.75;;;10.52;;
53903;SDS011;39812;52.430;16.936;2023-01-29T16:23:18;32.25;;;16.55;;
53903;SDS011;39812;52.430;16.936;2023-01-29T16:25:48;31.63;;;15.60;;
53903;SDS011;39812;52.430;16.936;2023-01-29T16:28:15;22.55;;;12.88;;
53903;SDS011;39812;52.430;16.936;2023-01-29T16:30:41;26.92;;;11.98;;
53903;SDS011;39812;52.430;16.936;2023-01-29T16:33:10;30.42;;;14.57;;
53903;SDS011;39812;52.430;16.936;2023-01-29T16:35:38;22.95;;;11.85;;
53903;SDS011;39812;52.430;16.936;2023-01-29T16:38:05;29.80;;;15.95;;
53903;SDS011;39812;52.430;16.936;2023-01-29T16:40:39;27.33;;;13.30;;
53903;SDS011;39812;52.430;16.936;2023-01-29T16:46:17;27.83;;;13.32;;
53903;SDS011;39812;52.430;16.936;2023-01-29T16:48:44;30.42;;;13.95;;
53903;SDS011;39812;52.430;16.936;2023-01-29T16:51:16;29.67;;;15.15;;
53903;SDS011;39812;52.430;16.936;2023-01-29T16:56:21;30.02;;;15.90;;
53903;SDS011;39812;52.430;16.936;2023-01-29T16:58:48;27.55;;;13.43;;
53903;SDS011;39812;52.430;16.936;2023-01-29T17:01:15;38.33;;;16.73;;
53903;SDS011;39812;52.430;16.936;2023-01-29T17:03:41;30.08;;;16.17;;
53903;SDS011;39812;52.430;16.936;2023-01-29T17:06:11;36.90;;;18.17;;
53903;SDS011;39812;52.430;16.936;2023-01-29T17:08:43;32.08;;;16.42;;
53903;SDS011;39812;52.430;16.936;2023-01-29T17:11:08;34.53;;;15.60;;
53903;SDS011;39812;52.430;16.936;2023-01-29T17:13:38;29.58;;;14.07;;
53903;SDS011;39812;52.430;16.936;2023-01-29T17:18:46;36.38;;;15.77;;
53903;SDS011;39812;52.430;16.936;2023-01-29T17:21:11;36.35;;;17.52;;
53903;SDS011;39812;52.430;16.936;2023-01-29T17:23:37;33.88;;;15.02;;
53903;SDS011;39812;52.430;16.936;2023-01-29T17:26:02;35.75;;;17.30;;
53903;SDS011;39812;52.430;16.936;2023-01-29T17:28:31;34.20;;;17.20;;
53903;SDS011;39812;52.430;16.936;2023-01-29T17:30:57;33.67;;;15.68;;
53903;SDS011;39812;52.430;16.936;2023-01-29T17:33:24;35.35;;;14.60;;
53903;SDS011;39812;52.430;16.936;2023-01-29T17:35:50;35.97;;;16.70;;
53903;SDS011;39812;52.430;16.936;2023-01-29T17:38:17;35.47;;;16.30;;
53903;SDS011;39812;52.430;16.936;2023-01-29T17:40:46;38.75;;;19.10;;
53903;SDS011;39812;52.430;16.936;2023-01-29T17:43:16;31.30;;;16.08;;
53903;SDS011;39812;52.430;16.936;2023-01-29T17:45:42;26.30;;;13.75;;
53903;SDS011;39812;52.430;16.936;2023-01-29T17:48:27;31.88;;;16.73;;
53903;SDS011;39812;52.430;16.936;2023-01-29T17:50:54;39.20;;;17.98;;